sensor_id;sensor_type;location;lat;lon;timestamp;P1;durP1;ratioP1;P2;durP2;ratioP2
30617;SDS011;17384;51.214;9.202;2023-04-09T00:00:35;80.13;;;38.17;;
30617;SDS011;17384;51.214;9.202;2023-04-09T00:03:01;88.57;;;37.80;;
30617;SDS011;17384;51.214;9.202;2023-04-09T00:05:26;93.35;;;41.25;;
30617;SDS011;17384;51.214;9.202;2023-04-09T00:07:52;92.05;;;40.28;;
30617;SDS011;17384;51.214;9.202;2023-04-09T00:10:17;76.72;;;36.05;;
30617;SDS011;17384;51.214;9.202;2023-04-09T00:12:43;82.78;;;38.75;;
30617;SDS011;17384;51.214;9.202;2023-04-09T00:15:08;83.07;;;37.83;;
30617;SDS011;17384;51.214;9.202;2023-04-09T00:17:34;77.63;;;37.20;;
30617;SDS011;17384;51.214;9.202;2023-04-09T00:19:59;91.22;;;41.05;;
30617;SDS011;17384;51.214;9.202;2023-04-09T00:22:25;86.05;;;38.17;;
30617;SDS011;17384;51.214;9.202;2023-04-09T00:24:50;86.63;;;39.88;;
30617;SDS011;17384;51.214;9.202;2023-04-09T00:27:16;89.05;;;41.08;;
30617;SDS011;17384;51.214;9.202;2023-04-09T00:29:41;85.15;;;38.88;;
30617;SDS011;17384;51.214;9.202;2023-04-09T00:32:07;74.95;;;36.28;;
30617;SDS011;17384;51.214;9.202;2023-04-09T00:34:32;88.60;;;39.35;;
30617;SDS011;17384;51.214;9.202;2023-04-09T00:36:59;75.22;;;35.88;;
30617;SDS011;17384;51.214;9.202;2023-04-09T00:39:25;78.00;;;36.05;;
30617;SDS011;17384;51.214;9.202;2023-04-09T00:41:54;80.53;;;36.65;;
30617;SDS011;17384;51.214;9.202;2023-04-09T00:44:23;75.72;;;33.88;;
30617;SDS011;17384;51.214;9.202;2023-04-09T00:46:49;72.60;;;34.75;;
30617;SDS011;17384;51.214;9.202;2023-04-09T00:49:16;70.93;;;33.97;;
30617;SDS011;17384;51.214;9.202;2023-04-09T00:51:42;73.03;;;33.45;;
30617;SDS011;17384;51.214;9.202;2023-04-09T00:54:09;71.78;;;34.30;;
30617;SDS011;17384;51.214;9.202;2023-04-09T00:56:34;75.63;;;34.70;;
30617;SDS011;17384;51.214;9.202;2023-04-09T00:59:01;76.68;;;36.72;;
30617;SDS011;17384;51.214;9.202;2023-04-09T01:01:26;79.88;;;36.63;;
30617;SDS011;17384;51.214;9.202;2023-04-09T01:03:52;84.57;;;38.17;;
30617;SDS011;17384;51.214;9.202;2023-04-09T01:06:38;89.82;;;39.30;;
30617;SDS011;17384;51.214;9.202;2023-04-09T01:11:58;88.70;;;40.72;;
30617;SDS011;17384;51.214;9.202;2023-04-09T01:17:23;72.80;;;34.50;;
30617;SDS011;17384;51.214;9.202;2023-04-09T01:28:20;81.88;;;35.63;;
30617;SDS011;17384;51.214;9.202;2023-04-09T01:30:51;74.40;;;35.05;;
30617;SDS011;17384;51.214;9.202;2023-04-09T01:33:20;78.50;;;35.08;;
30617;SDS011;17384;51.214;9.202;2023-04-09T01:35:47;94.03;;;37.80;;
30617;SDS011;17384;51.214;9.202;2023-04-09T01:38:15;88.57;;;38.88;;
30617;SDS011;17384;51.214;9.202;2023-04-09T01:40:43;85.28;;;35.88;;
30617;SDS011;17384;51.214;9.202;2023-04-09T01:43:10;82.05;;;36.08;;
30617;SDS011;17384;51.214;9.202;2023-04-09T01:45:37;91.05;;;39.33;;
30617;SDS011;17384;51.214;9.202;2023-04-09T01:48:04;95.90;;;38.88;;
30617;SDS011;17384;51.214;9.202;2023-04-09T01:50:30;85.78;;;37.70;;
30617;SDS011;17384;51.214;9.202;2023-04-09T01:52:56;93.50;;;39.78;;
30617;SDS011;17384;51.214;9.202;2023-04-09T01:55:23;84.50;;;37.58;;
30617;SDS011;17384;51.214;9.202;2023-04-09T01:57:48;96.15;;;38.85;;
30617;SDS011;17384;51.214;9.202;2023-04-09T02:00:14;103.80;;;40.03;;
30617;SDS011;17384;51.214;9.202;2023-04-09T02:02:54;88.70;;;37.88;;
30617;SDS011;17384;51.214;9.202;2023-04-09T02:05:26;92.75;;;38.30;;
30617;SDS011;17384;51.214;9.202;2023-04-09T02:07:56;100.60;;;39.35;;
30617;SDS011;17384;51.214;9.202;2023-04-09T02:10:26;85.13;;;39.85;;
30617;SDS011;17384;51.214;9.202;2023-04-09T02:12:56;92.85;;;39.58;;
30617;SDS011;17384;51.214;9.202;2023-04-09T02:15:24;95.10;;;39.03;;
30617;SDS011;17384;51.214;9.202;2023-04-09T02:17:52;99.35;;;40.40;;
30617;SDS011;17384;51.214;9.202;2023-04-09T02:20:18;95.07;;;40.03;;
30617;SDS011;17384;51.214;9.202;2023-04-09T02:22:46;102.15;;;41.63;;
30617;SDS011;17384;51.214;9.202;2023-04-09T02:25:12;91.75;;;38.10;;
30617;SDS011;17384;51.214;9.202;2023-04-09T02:27:38;86.38;;;36.55;;
30617;SDS011;17384;51.214;9.202;2023-04-09T02:30:04;91.00;;;39.00;;
30617;SDS011;17384;51.214;9.202;2023-04-09T02:32:29;97.07;;;38.63;;
30617;SDS011;17384;51.214;9.202;2023-04-09T02:34:55;97.95;;;38.67;;
30617;SDS011;17384;51.214;9.202;2023-04-09T02:37:20;89.53;;;37.65;;
30617;SDS011;17384;51.214;9.202;2023-04-09T02:39:46;92.53;;;38.10;;
30617;SDS011;17384;51.214;9.202;2023-04-09T02:42:11;89.95;;;36.67;;
30617;SDS011;17384;51.214;9.202;2023-04-09T02:44:37;78.35;;;36.63;;
30617;SDS011;17384;51.214;9.202;2023-04-09T02:47:02;83.32;;;35.13;;
30617;SDS011;17384;51.214;9.202;2023-04-09T02:49:28;93.88;;;39.97;;
30617;SDS011;17384;51.214;9.202;2023-04-09T02:51:53;95.38;;;40.58;;
30617;SDS011;17384;51.214;9.202;2023-04-09T02:54:18;96.22;;;39.38;;
30617;SDS011;17384;51.214;9.202;2023-04-09T02:56:44;108.25;;;42.30;;
30617;SDS011;17384;51.214;9.202;2023-04-09T02:59:09;101.07;;;41.28;;
30617;SDS011;17384;51.214;9.202;2023-04-09T03:01:35;96.28;;;39.03;;
30617;SDS011;17384;51.214;9.202;2023-04-09T03:04:00;108.88;;;42.53;;
30617;SDS011;17384;51.214;9.202;2023-04-09T03:06:26;108.10;;;42.90;;
30617;SDS011;17384;51.214;9.202;2023-04-09T03:08:52;112.55;;;39.67;;
30617;SDS011;17384;51.214;9.202;2023-04-09T03:11:17;102.82;;;41.67;;
30617;SDS011;17384;51.214;9.202;2023-04-09T03:13:43;93.28;;;40.28;;
30617;SDS011;17384;51.214;9.202;2023-04-09T03:16:08;97.35;;;40.53;;
30617;SDS011;17384;51.214;9.202;2023-04-09T03:18:34;99.18;;;40.80;;
30617;SDS011;17384;51.214;9.202;2023-04-09T03:21:03;92.07;;;39.25;;
30617;SDS011;17384;51.214;9.202;2023-04-09T03:23:32;96.53;;;40.15;;
30617;SDS011;17384;51.214;9.202;2023-04-09T03:26:02;95.65;;;39.92;;
30617;SDS011;17384;51.214;9.202;2023-04-09T03:28:29;83.95;;;37.17;;
30617;SDS011;17384;51.214;9.202;2023-04-09T03:30:54;96.97;;;41.72;;
30617;SDS011;17384;51.214;9.202;2023-04-09T03:33:20;103.25;;;41.85;;
30617;SDS011;17384;51.214;9.202;2023-04-09T03:35:45;116.55;;;44.20;;
30617;SDS011;17384;51.214;9.202;2023-04-09T03:38:11;109.72;;;42.90;;
30617;SDS011;17384;51.214;9.202;2023-04-09T03:40:36;129.10;;;50.38;;
30617;SDS011;17384;51.214;9.202;2023-04-09T03:43:01;141.00;;;52.17;;
30617;SDS011;17384;51.214;9.202;2023-04-09T03:45:28;140.23;;;50.88;;
30617;SDS011;17384;51.214;9.202;2023-04-09T03:47:54;120.55;;;49.60;;
30617;SDS011;17384;51.214;9.202;2023-04-09T03:50:19;136.80;;;49.85;;
30617;SDS011;17384;51.214;9.202;2023-04-09T03:52:44;130.00;;;49.38;;
30617;SDS011;17384;51.214;9.202;2023-04-09T03:55:10;131.65;;;50.17;;
30617;SDS011;17384;51.214;9.202;2023-04-09T03:57:35;130.80;;;48.70;;
30617;SDS011;17384;51.214;9.202;2023-04-09T04:00:01;136.57;;;50.65;;
30617;SDS011;17384;51.214;9.202;2023-04-09T04:02:26;136.77;;;50.00;;
30617;SDS011;17384;51.214;9.202;2023-04-09T04:04:54;128.68;;;49.47;;
30617;SDS011;17384;51.214;9.202;2023-04-09T04:07:19;125.22;;;47.67;;
30617;SDS011;17384;51.214;9.202;2023-04-09T04:09:45;122.05;;;46.40;;
30617;SDS011;17384;51.214;9.202;2023-04-09T04:12:10;107.03;;;43.08;;
30617;SDS011;17384;51.214;9.202;2023-04-09T04:14:36;109.05;;;45.00;;
30617;SDS011;17384;51.214;9.202;2023-04-09T04:17:01;106.30;;;41.97;;
30617;SDS011;17384;51.214;9.202;2023-04-09T04:19:26;110.25;;;42.67;;
30617;SDS011;17384;51.214;9.202;2023-04-09T04:21:52;104.63;;;42.75;;
30617;SDS011;17384;51.214;9.202;2023-04-09T04:24:17;105.50;;;41.78;;
30617;SDS011;17384;51.214;9.202;2023-04-09T04:26:43;105.68;;;44.90;;
30617;SDS011;17384;51.214;9.202;2023-04-09T04:29:08;111.75;;;45.03;;
30617;SDS011;17384;51.214;9.202;2023-04-09T04:31:33;111.68;;;44.10;;
30617;SDS011;17384;51.214;9.202;2023-04-09T04:33:59;101.68;;;41.63;;
30617;SDS011;17384;51.214;9.202;2023-04-09T04:36:25;95.40;;;41.72;;
30617;SDS011;17384;51.214;9.202;2023-04-09T04:38:51;96.90;;;39.50;;
30617;SDS011;17384;51.214;9.202;2023-04-09T04:41:16;95.05;;;40.05;;
30617;SDS011;17384;51.214;9.202;2023-04-09T04:43:41;98.10;;;41.80;;
30617;SDS011;17384;51.214;9.202;2023-04-09T04:46:07;92.10;;;38.70;;
30617;SDS011;17384;51.214;9.202;2023-04-09T04:48:32;91.40;;;39.08;;
30617;SDS011;17384;51.214;9.202;2023-04-09T04:50:58;88.63;;;38.78;;
30617;SDS011;17384;51.214;9.202;2023-04-09T04:53:25;95.80;;;42.00;;
30617;SDS011;17384;51.214;9.202;2023-04-09T04:55:51;89.63;;;39.42;;
30617;SDS011;17384;51.214;9.202;2023-04-09T04:58:17;98.93;;;41.90;;
30617;SDS011;17384;51.214;9.202;2023-04-09T05:00:42;98.85;;;43.38;;
30617;SDS011;17384;51.214;9.202;2023-04-09T05:03:09;108.38;;;45.65;;
30617;SDS011;17384;51.214;9.202;2023-04-09T05:05:34;113.45;;;47.70;;
30617;SDS011;17384;51.214;9.202;2023-04-09T05:08:00;113.13;;;47.15;;
30617;SDS011;17384;51.214;9.202;2023-04-09T05:10:25;109.15;;;45.63;;
30617;SDS011;17384;51.214;9.202;2023-04-09T05:12:51;108.35;;;46.90;;
30617;SDS011;17384;51.214;9.202;2023-04-09T05:15:16;109.85;;;46.08;;
30617;SDS011;17384;51.214;9.202;2023-04-09T05:17:42;103.50;;;45.35;;
30617;SDS011;17384;51.214;9.202;2023-04-09T05:20:08;102.70;;;43.20;;
30617;SDS011;17384;51.214;9.202;2023-04-09T05:22:35;97.13;;;43.50;;
30617;SDS011;17384;51.214;9.202;2023-04-09T05:25:00;105.00;;;43.90;;
30617;SDS011;17384;51.214;9.202;2023-04-09T05:27:27;108.47;;;44.50;;
30617;SDS011;17384;51.214;9.202;2023-04-09T05:29:53;106.63;;;44.20;;
30617;SDS011;17384;51.214;9.202;2023-04-09T05:32:18;113.82;;;45.72;;
30617;SDS011;17384;51.214;9.202;2023-04-09T05:34:43;105.63;;;46.47;;
30617;SDS011;17384;51.214;9.202;2023-04-09T05:37:09;110.63;;;47.83;;
30617;SDS011;17384;51.214;9.202;2023-04-09T05:39:34;117.10;;;46.17;;
30617;SDS011;17384;51.214;9.202;2023-04-09T05:42:00;110.65;;;45.10;;
30617;SDS011;17384;51.214;9.202;2023-04-09T05:44:26;108.57;;;43.08;;
30617;SDS011;17384;51.214;9.202;2023-04-09T05:46:51;120.78;;;48.00;;
30617;SDS011;17384;51.214;9.202;2023-04-09T05:49:17;110.20;;;44.90;;
30617;SDS011;17384;51.214;9.202;2023-04-09T05:51:42;108.32;;;43.65;;
30617;SDS011;17384;51.214;9.202;2023-04-09T05:54:08;116.03;;;46.70;;
30617;SDS011;17384;51.214;9.202;2023-04-09T05:56:34;114.00;;;46.92;;
30617;SDS011;17384;51.214;9.202;2023-04-09T05:59:00;112.03;;;48.10;;
30617;SDS011;17384;51.214;9.202;2023-04-09T06:01:26;106.93;;;46.03;;
30617;SDS011;17384;51.214;9.202;2023-04-09T06:03:51;101.90;;;44.88;;
30617;SDS011;17384;51.214;9.202;2023-04-09T06:06:17;111.25;;;45.13;;
30617;SDS011;17384;51.214;9.202;2023-04-09T06:08:43;103.28;;;47.25;;
30617;SDS011;17384;51.214;9.202;2023-04-09T06:11:09;100.97;;;45.92;;
30617;SDS011;17384;51.214;9.202;2023-04-09T06:13:36;97.47;;;43.90;;
30617;SDS011;17384;51.214;9.202;2023-04-09T06:16:03;103.75;;;44.55;;
30617;SDS011;17384;51.214;9.202;2023-04-09T06:18:29;102.10;;;45.28;;
30617;SDS011;17384;51.214;9.202;2023-04-09T06:21:05;102.93;;;46.97;;
30617;SDS011;17384;51.214;9.202;2023-04-09T06:23:32;96.47;;;43.58;;
30617;SDS011;17384;51.214;9.202;2023-04-09T06:25:58;113.22;;;48.33;;
30617;SDS011;17384;51.214;9.202;2023-04-09T06:28:24;101.10;;;44.10;;
30617;SDS011;17384;51.214;9.202;2023-04-09T06:30:50;103.70;;;49.25;;
30617;SDS011;17384;51.214;9.202;2023-04-09T06:33:17;105.97;;;44.75;;
30617;SDS011;17384;51.214;9.202;2023-04-09T06:35:43;105.07;;;47.25;;
30617;SDS011;17384;51.214;9.202;2023-04-09T06:38:09;100.45;;;45.20;;
30617;SDS011;17384;51.214;9.202;2023-04-09T06:40:37;90.72;;;41.15;;
30617;SDS011;17384;51.214;9.202;2023-04-09T06:43:03;90.85;;;42.50;;
30617;SDS011;17384;51.214;9.202;2023-04-09T06:45:29;98.13;;;42.95;;
30617;SDS011;17384;51.214;9.202;2023-04-09T06:47:56;96.70;;;41.95;;
30617;SDS011;17384;51.214;9.202;2023-04-09T06:50:22;99.07;;;47.58;;
30617;SDS011;17384;51.214;9.202;2023-04-09T06:52:48;98.15;;;43.30;;
30617;SDS011;17384;51.214;9.202;2023-04-09T06:55:14;99.93;;;44.30;;
30617;SDS011;17384;51.214;9.202;2023-04-09T06:57:40;97.03;;;42.40;;
30617;SDS011;17384;51.214;9.202;2023-04-09T07:00:06;106.00;;;46.58;;
30617;SDS011;17384;51.214;9.202;2023-04-09T07:02:32;91.28;;;43.78;;
30617;SDS011;17384;51.214;9.202;2023-04-09T07:04:58;91.50;;;41.38;;
30617;SDS011;17384;51.214;9.202;2023-04-09T07:07:23;87.75;;;40.63;;
30617;SDS011;17384;51.214;9.202;2023-04-09T07:09:49;83.72;;;38.90;;
30617;SDS011;17384;51.214;9.202;2023-04-09T07:12:25;85.07;;;39.05;;
30617;SDS011;17384;51.214;9.202;2023-04-09T07:14:51;78.68;;;37.92;;
30617;SDS011;17384;51.214;9.202;2023-04-09T07:17:16;78.13;;;37.83;;
30617;SDS011;17384;51.214;9.202;2023-04-09T07:19:42;68.43;;;35.58;;
30617;SDS011;17384;51.214;9.202;2023-04-09T07:22:07;63.58;;;32.72;;
30617;SDS011;17384;51.214;9.202;2023-04-09T07:24:33;64.35;;;33.03;;
30617;SDS011;17384;51.214;9.202;2023-04-09T07:27:02;58.72;;;31.30;;
30617;SDS011;17384;51.214;9.202;2023-04-09T07:29:28;62.50;;;31.80;;
30617;SDS011;17384;51.214;9.202;2023-04-09T07:31:53;58.75;;;30.58;;
30617;SDS011;17384;51.214;9.202;2023-04-09T07:34:19;59.88;;;31.10;;
30617;SDS011;17384;51.214;9.202;2023-04-09T07:36:44;61.03;;;30.15;;
30617;SDS011;17384;51.214;9.202;2023-04-09T07:39:10;57.05;;;30.38;;
30617;SDS011;17384;51.214;9.202;2023-04-09T07:41:36;56.42;;;28.65;;
30617;SDS011;17384;51.214;9.202;2023-04-09T07:44:01;58.70;;;29.65;;
30617;SDS011;17384;51.214;9.202;2023-04-09T07:46:27;57.67;;;29.67;;
30617;SDS011;17384;51.214;9.202;2023-04-09T07:48:53;56.88;;;28.42;;
30617;SDS011;17384;51.214;9.202;2023-04-09T07:51:18;56.22;;;28.85;;
30617;SDS011;17384;51.214;9.202;2023-04-09T07:53:44;52.58;;;28.38;;
30617;SDS011;17384;51.214;9.202;2023-04-09T07:56:09;53.30;;;26.88;;
30617;SDS011;17384;51.214;9.202;2023-04-09T07:58:35;50.42;;;26.75;;
30617;SDS011;17384;51.214;9.202;2023-04-09T08:01:02;47.78;;;25.73;;
30617;SDS011;17384;51.214;9.202;2023-04-09T08:03:27;51.75;;;27.33;;
30617;SDS011;17384;51.214;9.202;2023-04-09T08:05:53;48.55;;;25.83;;
30617;SDS011;17384;51.214;9.202;2023-04-09T08:08:18;53.53;;;28.55;;
30617;SDS011;17384;51.214;9.202;2023-04-09T08:10:44;53.60;;;28.60;;
30617;SDS011;17384;51.214;9.202;2023-04-09T08:13:09;54.00;;;29.50;;
30617;SDS011;17384;51.214;9.202;2023-04-09T08:15:35;51.55;;;27.55;;
30617;SDS011;17384;51.214;9.202;2023-04-09T08:18:00;51.30;;;27.88;;
30617;SDS011;17384;51.214;9.202;2023-04-09T08:20:29;54.72;;;30.38;;
30617;SDS011;17384;51.214;9.202;2023-04-09T08:22:56;57.90;;;28.88;;
30617;SDS011;17384;51.214;9.202;2023-04-09T08:25:23;51.95;;;27.15;;
30617;SDS011;17384;51.214;9.202;2023-04-09T08:27:50;53.30;;;26.88;;
30617;SDS011;17384;51.214;9.202;2023-04-09T08:30:15;50.15;;;27.55;;
30617;SDS011;17384;51.214;9.202;2023-04-09T08:32:41;48.42;;;26.52;;
30617;SDS011;17384;51.214;9.202;2023-04-09T08:35:08;48.47;;;26.95;;
30617;SDS011;17384;51.214;9.202;2023-04-09T08:37:34;51.47;;;27.05;;
30617;SDS011;17384;51.214;9.202;2023-04-09T08:39:59;50.08;;;25.30;;
30617;SDS011;17384;51.214;9.202;2023-04-09T08:42:25;47.47;;;26.23;;
30617;SDS011;17384;51.214;9.202;2023-04-09T08:44:52;53.05;;;27.55;;
30617;SDS011;17384;51.214;9.202;2023-04-09T08:47:18;55.60;;;28.35;;
30617;SDS011;17384;51.214;9.202;2023-04-09T08:49:45;52.72;;;28.02;;
30617;SDS011;17384;51.214;9.202;2023-04-09T08:52:12;48.95;;;25.20;;
30617;SDS011;17384;51.214;9.202;2023-04-09T08:54:40;50.70;;;26.83;;
30617;SDS011;17384;51.214;9.202;2023-04-09T08:57:05;50.53;;;25.25;;
30617;SDS011;17384;51.214;9.202;2023-04-09T08:59:31;49.17;;;24.38;;
30617;SDS011;17384;51.214;9.202;2023-04-09T09:02:07;45.70;;;24.85;;
30617;SDS011;17384;51.214;9.202;2023-04-09T09:04:47;45.92;;;24.70;;
30617;SDS011;17384;51.214;9.202;2023-04-09T09:07:14;44.55;;;24.15;;
30617;SDS011;17384;51.214;9.202;2023-04-09T09:09:50;47.40;;;26.48;;
30617;SDS011;17384;51.214;9.202;2023-04-09T09:12:36;101.28;;;37.30;;
30617;SDS011;17384;51.214;9.202;2023-04-09T09:15:04;51.28;;;25.50;;
30617;SDS011;17384;51.214;9.202;2023-04-09T09:17:31;47.50;;;25.05;;
30617;SDS011;17384;51.214;9.202;2023-04-09T09:19:57;46.13;;;24.25;;
30617;SDS011;17384;51.214;9.202;2023-04-09T09:22:23;40.50;;;21.88;;
30617;SDS011;17384;51.214;9.202;2023-04-09T09:24:50;49.60;;;24.40;;
30617;SDS011;17384;51.214;9.202;2023-04-09T09:27:32;44.00;;;22.75;;
30617;SDS011;17384;51.214;9.202;2023-04-09T09:30:00;45.20;;;23.45;;
30617;SDS011;17384;51.214;9.202;2023-04-09T09:32:30;47.10;;;25.08;;
30617;SDS011;17384;51.214;9.202;2023-04-09T09:34:59;46.38;;;23.92;;
30617;SDS011;17384;51.214;9.202;2023-04-09T09:37:31;44.05;;;23.75;;
30617;SDS011;17384;51.214;9.202;2023-04-09T09:39:58;45.42;;;24.38;;
30617;SDS011;17384;51.214;9.202;2023-04-09T09:42:25;48.05;;;25.55;;
30617;SDS011;17384;51.214;9.202;2023-04-09T09:44:51;45.95;;;23.35;;
30617;SDS011;17384;51.214;9.202;2023-04-09T09:47:19;43.47;;;22.17;;
30617;SDS011;17384;51.214;9.202;2023-04-09T09:49:48;43.25;;;22.05;;
30617;SDS011;17384;51.214;9.202;2023-04-09T09:52:14;44.70;;;25.77;;
30617;SDS011;17384;51.214;9.202;2023-04-09T09:54:42;41.20;;;23.13;;
30617;SDS011;17384;51.214;9.202;2023-04-09T09:57:14;36.20;;;20.95;;
30617;SDS011;17384;51.214;9.202;2023-04-09T09:59:45;40.28;;;22.88;;
30617;SDS011;17384;51.214;9.202;2023-04-09T10:02:20;35.40;;;19.15;;
30617;SDS011;17384;51.214;9.202;2023-04-09T10:04:48;39.63;;;23.17;;
30617;SDS011;17384;51.214;9.202;2023-04-09T10:07:18;42.20;;;23.50;;
30617;SDS011;17384;51.214;9.202;2023-04-09T10:09:47;52.75;;;28.05;;
30617;SDS011;17384;51.214;9.202;2023-04-09T10:12:15;44.33;;;22.17;;
30617;SDS011;17384;51.214;9.202;2023-04-09T10:14:41;38.85;;;22.13;;
30617;SDS011;17384;51.214;9.202;2023-04-09T10:17:07;37.38;;;21.90;;
30617;SDS011;17384;51.214;9.202;2023-04-09T10:19:34;39.15;;;21.98;;
30617;SDS011;17384;51.214;9.202;2023-04-09T10:22:09;37.90;;;19.60;;
30617;SDS011;17384;51.214;9.202;2023-04-09T10:24:38;38.27;;;21.93;;
30617;SDS011;17384;51.214;9.202;2023-04-09T10:27:08;37.50;;;21.35;;
30617;SDS011;17384;51.214;9.202;2023-04-09T10:29:35;42.38;;;23.25;;
30617;SDS011;17384;51.214;9.202;2023-04-09T10:32:12;37.03;;;19.75;;
30617;SDS011;17384;51.214;9.202;2023-04-09T10:34:45;27.35;;;15.68;;
30617;SDS011;17384;51.214;9.202;2023-04-09T10:37:14;29.58;;;16.10;;
30617;SDS011;17384;51.214;9.202;2023-04-09T10:39:47;26.65;;;15.65;;
30617;SDS011;17384;51.214;9.202;2023-04-09T10:42:48;28.25;;;17.13;;
30617;SDS011;17384;51.214;9.202;2023-04-09T10:47:39;40.20;;;21.58;;
30617;SDS011;17384;51.214;9.202;2023-04-09T10:52:46;34.50;;;19.42;;
30617;SDS011;17384;51.214;9.202;2023-04-09T10:55:34;32.40;;;18.83;;
30617;SDS011;17384;51.214;9.202;2023-04-09T10:58:10;29.92;;;18.17;;
30617;SDS011;17384;51.214;9.202;2023-04-09T11:00:37;35.60;;;19.33;;
30617;SDS011;17384;51.214;9.202;2023-04-09T11:06:02;30.55;;;18.30;;
30617;SDS011;17384;51.214;9.202;2023-04-09T11:08:35;33.47;;;20.17;;
30617;SDS011;17384;51.214;9.202;2023-04-09T11:11:02;35.20;;;21.55;;
30617;SDS011;17384;51.214;9.202;2023-04-09T11:13:28;41.03;;;22.15;;
30617;SDS011;17384;51.214;9.202;2023-04-09T11:15:56;40.95;;;22.00;;
30617;SDS011;17384;51.214;9.202;2023-04-09T11:18:25;41.90;;;21.98;;
30617;SDS011;17384;51.214;9.202;2023-04-09T11:20:56;37.55;;;21.17;;
30617;SDS011;17384;51.214;9.202;2023-04-09T11:23:23;36.95;;;20.58;;
30617;SDS011;17384;51.214;9.202;2023-04-09T11:25:50;44.67;;;23.60;;
30617;SDS011;17384;51.214;9.202;2023-04-09T11:28:16;39.55;;;22.27;;
30617;SDS011;17384;51.214;9.202;2023-04-09T11:30:42;44.13;;;24.55;;
30617;SDS011;17384;51.214;9.202;2023-04-09T11:33:08;42.53;;;23.65;;
30617;SDS011;17384;51.214;9.202;2023-04-09T11:35:34;34.90;;;20.42;;
30617;SDS011;17384;51.214;9.202;2023-04-09T11:38:04;32.33;;;17.30;;
30617;SDS011;17384;51.214;9.202;2023-04-09T11:40:31;37.08;;;20.25;;
30617;SDS011;17384;51.214;9.202;2023-04-09T11:42:56;36.25;;;20.63;;
30617;SDS011;17384;51.214;9.202;2023-04-09T11:45:23;36.00;;;20.13;;
30617;SDS011;17384;51.214;9.202;2023-04-09T11:47:52;37.38;;;20.08;;
30617;SDS011;17384;51.214;9.202;2023-04-09T11:50:19;37.75;;;20.98;;
30617;SDS011;17384;51.214;9.202;2023-04-09T11:52:45;36.95;;;19.67;;
30617;SDS011;17384;51.214;9.202;2023-04-09T11:55:17;35.47;;;19.15;;
30617;SDS011;17384;51.214;9.202;2023-04-09T11:57:47;25.58;;;13.60;;
30617;SDS011;17384;51.214;9.202;2023-04-09T12:00:16;27.85;;;15.60;;
30617;SDS011;17384;51.214;9.202;2023-04-09T12:02:45;28.48;;;16.27;;
30617;SDS011;17384;51.214;9.202;2023-04-09T12:05:20;24.33;;;14.55;;
30617;SDS011;17384;51.214;9.202;2023-04-09T12:07:46;25.98;;;14.60;;
30617;SDS011;17384;51.214;9.202;2023-04-09T12:10:12;23.27;;;13.23;;
30617;SDS011;17384;51.214;9.202;2023-04-09T12:12:44;25.65;;;14.02;;
30617;SDS011;17384;51.214;9.202;2023-04-09T12:17:49;25.77;;;14.93;;
30617;SDS011;17384;51.214;9.202;2023-04-09T12:25:27;27.98;;;15.82;;
30617;SDS011;17384;51.214;9.202;2023-04-09T12:27:54;24.88;;;14.95;;
30617;SDS011;17384;51.214;9.202;2023-04-09T12:30:20;28.25;;;16.35;;
30617;SDS011;17384;51.214;9.202;2023-04-09T12:32:46;26.73;;;14.93;;
30617;SDS011;17384;51.214;9.202;2023-04-09T12:35:12;27.33;;;15.75;;
30617;SDS011;17384;51.214;9.202;2023-04-09T12:37:38;32.45;;;17.90;;
30617;SDS011;17384;51.214;9.202;2023-04-09T12:40:04;33.25;;;18.90;;
30617;SDS011;17384;51.214;9.202;2023-04-09T12:42:30;28.08;;;16.98;;
30617;SDS011;17384;51.214;9.202;2023-04-09T12:44:56;26.65;;;15.85;;
30617;SDS011;17384;51.214;9.202;2023-04-09T12:47:21;28.50;;;16.63;;
30617;SDS011;17384;51.214;9.202;2023-04-09T12:49:46;32.30;;;16.90;;
30617;SDS011;17384;51.214;9.202;2023-04-09T12:52:14;29.73;;;16.17;;
30617;SDS011;17384;51.214;9.202;2023-04-09T12:54:40;27.38;;;15.95;;
30617;SDS011;17384;51.214;9.202;2023-04-09T12:57:05;36.90;;;17.77;;
30617;SDS011;17384;51.214;9.202;2023-04-09T12:59:31;31.13;;;17.83;;
30617;SDS011;17384;51.214;9.202;2023-04-09T13:01:56;30.17;;;16.48;;
30617;SDS011;17384;51.214;9.202;2023-04-09T13:04:22;25.85;;;14.95;;
30617;SDS011;17384;51.214;9.202;2023-04-09T13:06:47;28.73;;;16.35;;
30617;SDS011;17384;51.214;9.202;2023-04-09T13:09:14;28.95;;;15.80;;
30617;SDS011;17384;51.214;9.202;2023-04-09T13:11:39;31.27;;;17.30;;
30617;SDS011;17384;51.214;9.202;2023-04-09T13:14:05;29.38;;;16.60;;
30617;SDS011;17384;51.214;9.202;2023-04-09T13:16:30;33.80;;;17.65;;
30617;SDS011;17384;51.214;9.202;2023-04-09T13:18:57;33.00;;;17.02;;
30617;SDS011;17384;51.214;9.202;2023-04-09T13:21:22;26.05;;;15.02;;
30617;SDS011;17384;51.214;9.202;2023-04-09T13:23:48;30.20;;;16.08;;
30617;SDS011;17384;51.214;9.202;2023-04-09T13:26:13;26.85;;;15.75;;
30617;SDS011;17384;51.214;9.202;2023-04-09T13:28:38;33.15;;;17.65;;
30617;SDS011;17384;51.214;9.202;2023-04-09T13:31:04;33.05;;;17.95;;
30617;SDS011;17384;51.214;9.202;2023-04-09T13:33:30;29.33;;;17.00;;
30617;SDS011;17384;51.214;9.202;2023-04-09T13:35:55;27.88;;;15.93;;
30617;SDS011;17384;51.214;9.202;2023-04-09T13:38:21;28.88;;;15.60;;
30617;SDS011;17384;51.214;9.202;2023-04-09T13:40:47;24.23;;;13.75;;
30617;SDS011;17384;51.214;9.202;2023-04-09T13:43:12;27.80;;;15.77;;
30617;SDS011;17384;51.214;9.202;2023-04-09T13:45:38;25.50;;;14.32;;
30617;SDS011;17384;51.214;9.202;2023-04-09T13:48:05;24.42;;;14.45;;
30617;SDS011;17384;51.214;9.202;2023-04-09T13:50:31;26.30;;;14.15;;
30617;SDS011;17384;51.214;9.202;2023-04-09T13:52:56;25.67;;;14.40;;
30617;SDS011;17384;51.214;9.202;2023-04-09T13:55:22;24.10;;;13.40;;
30617;SDS011;17384;51.214;9.202;2023-04-09T13:57:47;22.92;;;13.48;;
30617;SDS011;17384;51.214;9.202;2023-04-09T14:00:13;24.13;;;13.90;;
30617;SDS011;17384;51.214;9.202;2023-04-09T14:02:38;22.63;;;14.38;;
30617;SDS011;17384;51.214;9.202;2023-04-09T14:05:04;22.77;;;14.18;;
30617;SDS011;17384;51.214;9.202;2023-04-09T14:07:30;25.70;;;14.63;;
30617;SDS011;17384;51.214;9.202;2023-04-09T14:09:56;22.98;;;12.93;;
30617;SDS011;17384;51.214;9.202;2023-04-09T14:12:22;24.23;;;14.15;;
30617;SDS011;17384;51.214;9.202;2023-04-09T14:14:47;24.73;;;14.25;;
30617;SDS011;17384;51.214;9.202;2023-04-09T14:17:14;27.63;;;14.93;;
30617;SDS011;17384;51.214;9.202;2023-04-09T14:19:39;23.10;;;13.65;;
30617;SDS011;17384;51.214;9.202;2023-04-09T14:22:04;28.95;;;14.32;;
30617;SDS011;17384;51.214;9.202;2023-04-09T14:24:32;22.60;;;13.45;;
30617;SDS011;17384;51.214;9.202;2023-04-09T14:27:04;22.30;;;12.85;;
30617;SDS011;17384;51.214;9.202;2023-04-09T14:29:30;21.20;;;12.98;;
30617;SDS011;17384;51.214;9.202;2023-04-09T14:31:56;23.58;;;13.88;;
30617;SDS011;17384;51.214;9.202;2023-04-09T14:34:21;23.88;;;13.13;;
30617;SDS011;17384;51.214;9.202;2023-04-09T14:36:47;23.35;;;14.57;;
30617;SDS011;17384;51.214;9.202;2023-04-09T14:39:12;21.45;;;13.25;;
30617;SDS011;17384;51.214;9.202;2023-04-09T14:41:37;20.70;;;12.70;;
30617;SDS011;17384;51.214;9.202;2023-04-09T14:44:03;23.08;;;12.13;;
30617;SDS011;17384;51.214;9.202;2023-04-09T14:46:28;20.65;;;12.52;;